Time;durP1;ratioP1;P1;durP2;ratioP2;P2;SDS_P1;SDS_P2;PMS_P1;PMS_P2;Temp;Humidity;BMP_temperature;BMP_pressure;BME280_temperature;BME280_humidity;BME280_pressure;Samples;Min_cycle;Max_cycle;Signal;HPM_P1;HPM_P2
2020/12/22 00:01:14;;;;;;;0.30;0.20;;;;;;;10.46;100.00;100048.84;5019189;28;20460;-50
2020/12/22 00:03:41;;;;;;;0.30;0.20;;;;;;;10.49;100.00;100046.09;5016235;28;20854;-50
2020/12/22 00:06:08;;;;;;;0.30;0.20;;;;;;;10.53;100.00;100053.03;5022989;28;20448;-50
2020/12/22 00:08:34;;;;;;;0.30;0.20;;;;;;;10.58;100.00;100054.66;5022535;28;20969;-50
2020/12/22 00:11:01;;;;;;;0.30;0.20;;;;;;;10.74;100.00;100049.69;5019399;28;20455;-51
2020/12/22 00:13:27;;;;;;;0.30;0.20;;;;;;;10.63;100.00;100031.44;5022680;28;20452;-51
2020/12/22 00:15:53;;;;;;;0.30;0.20;;;;;;;10.59;100.00;100024.50;5025798;28;20444;-51
2020/12/22 00:18:19;;;;;;;0.30;0.20;;;;;;;10.48;100.00;100031.94;5023183;28;20498;-50
2020/12/22 00:20:46;;;;;;;0.30;0.20;;;;;;;10.65;100.00;100036.69;5019420;28;20448;-51
2020/12/22 00:23:12;;;;;;;0.30;0.20;;;;;;;10.55;100.00;100035.25;5021952;28;20492;-50
2020/12/22 00:25:46;;;;;;;0.30;0.20;;;;;;;10.59;100.00;100035.13;5026068;28;20452;-51
2020/12/22 00:28:13;;;;;;;0.30;0.20;;;;;;;10.70;100.00;100025.94;5024138;28;20456;-51
2020/12/22 00:30:39;;;;;;;0.30;0.20;;;;;;;10.75;100.00;100016.88;5013761;28;20451;-50
2020/12/22 00:33:06;;;;;;;0.30;0.20;;;;;;;10.75;100.00;100031.94;5004763;28;20467;-52
2020/12/22 00:35:32;;;;;;;0.30;0.20;;;;;;;10.65;100.00;100028.72;5025879;28;20476;-50
2020/12/22 00:37:59;;;;;;;0.30;0.20;;;;;;;10.63;100.00;100043.84;5013009;28;20452;-52
2020/12/22 00:40:25;;;;;;;0.30;0.20;;;;;;;10.65;100.00;100042.88;5014134;28;20506;-51
2020/12/22 00:42:52;;;;;;;0.30;0.20;;;;;;;10.76;100.00;100039.88;5019895;28;20500;-51
2020/12/22 00:45:19;;;;;;;0.30;0.20;;;;;;;10.68;100.00;100026.81;5025967;28;20488;-51
2020/12/22 00:47:45;;;;;;;0.30;0.20;;;;;;;10.72;100.00;100040.91;5024740;28;20447;-50
2020/12/22 00:50:11;;;;;;;0.30;0.20;;;;;;;10.64;100.00;100027.84;5018855;28;20474;-50
2020/12/22 00:52:38;;;;;;;0.30;0.20;;;;;;;10.66;100.00;100017.16;5019971;28;21005;-51
2020/12/22 00:55:06;;;;;;;0.30;0.20;;;;;;;10.64;100.00;100019.00;5025591;28;20459;-51
2020/12/22 00:57:32;;;;;;;0.30;0.20;;;;;;;10.68;100.00;100029.47;5012656;28;20456;-51
2020/12/22 00:59:58;;;;;;;0.30;0.20;;;;;;;10.76;100.00;100029.25;5025630;28;20479;-51
2020/12/22 01:02:25;;;;;;;0.30;0.20;;;;;;;10.69;100.00;100041.00;5025539;28;20490;-51
2020/12/22 01:04:51;;;;;;;0.30;0.20;;;;;;;10.79;100.00;100038.91;5002790;28;20464;-51
2020/12/22 01:07:18;;;;;;;0.30;0.20;;;;;;;10.73;100.00;100039.13;5025359;28;20450;-51
2020/12/22 01:09:45;;;;;;;0.30;0.20;;;;;;;10.76;100.00;100041.66;5018653;28;20479;-50
2020/12/22 01:12:11;;;;;;;0.30;0.20;;;;;;;10.75;100.00;100048.78;5018715;28;20507;-53
2020/12/22 01:14:37;;;;;;;0.30;0.20;;;;;;;10.88;100.00;100041.25;5005763;28;20451;-51
2020/12/22 01:17:04;;;;;;;0.30;0.20;;;;;;;10.92;100.00;100040.22;5020769;28;20448;-51
2020/12/22 01:19:30;;;;;;;0.30;0.20;;;;;;;10.85;100.00;100036.06;5029071;28;20458;-51
2020/12/22 01:21:57;;;;;;;0.30;0.20;;;;;;;10.80;100.00;100052.13;5029176;28;20817;-50
2020/12/22 01:24:23;;;;;;;0.30;0.20;;;;;;;10.85;100.00;100047.56;5009115;28;20568;-50
2020/12/22 01:26:50;;;;;;;0.30;0.20;;;;;;;10.81;100.00;100039.72;5022662;28;20855;-51
2020/12/22 01:29:16;;;;;;;0.30;0.20;;;;;;;10.89;100.00;100030.56;5009781;28;20463;-50
2020/12/22 01:31:45;;;;;;;0.30;0.20;;;;;;;10.86;100.00;100029.81;5022431;28;20455;-51
2020/12/22 01:34:11;;;;;;;0.30;0.20;;;;;;;10.90;100.00;100026.13;5029082;28;20448;-51
2020/12/22 01:36:37;;;;;;;0.30;0.20;;;;;;;10.88;100.00;100039.47;5029984;28;20426;-50
2020/12/22 01:39:04;;;;;;;0.30;0.20;;;;;;;10.82;100.00;100026.38;5024517;28;21044;-50
2020/12/22 01:41:39;;;;;;;0.30;0.20;;;;;;;10.94;100.00;100014.44;5023891;28;20457;-50
2020/12/22 01:44:09;;;;;;;0.30;0.20;;;;;;;10.98;100.00;100013.44;5027917;28;20537;-50
2020/12/22 01:46:42;;;;;;;0.30;0.20;;;;;;;10.98;100.00;100013.44;5029082;28;20827;-51
2020/12/22 01:49:23;;;;;;;0.30;0.20;;;;;;;11.03;100.00;100016.78;5026368;28;20438;-51
2020/12/22 01:51:51;;;;;;;0.30;0.20;;;;;;;10.99;100.00;100031.13;5022055;28;20428;-51
2020/12/22 01:54:18;;;;;;;0.30;0.20;;;;;;;11.05;100.00;100027.38;5022082;28;20448;-51
2020/12/22 01:56:45;;;;;;;0.30;0.20;;;;;;;11.03;100.00;100029.22;4995975;28;20453;-51
2020/12/22 01:59:12;;;;;;;0.30;0.20;;;;;;;11.07;100.00;100017.53;5022170;28;20471;-52
2020/12/22 02:01:38;;;;;;;0.30;0.20;;;;;;;11.11;100.00;100020.06;5022415;28;20422;-51
2020/12/22 02:04:06;;;;;;;0.30;0.20;;;;;;;11.08;100.00;100021.94;5012042;28;20489;-51
2020/12/22 02:06:34;;;;;;;0.30;0.20;;;;;;;11.16;100.00;100011.91;5022520;28;20452;-51
2020/12/22 02:09:02;;;;;;;0.30;0.20;;;;;;;11.14;100.00;100022.63;5020112;28;20523;-50
2020/12/22 02:11:31;;;;;;;0.30;0.20;;;;;;;11.27;100.00;100031.91;5027230;28;20463;-51
2020/12/22 02:13:58;;;;;;;0.30;0.20;;;;;;;11.36;100.00;100028.03;5028399;28;20444;-50
2020/12/22 02:16:25;;;;;;;0.30;0.20;;;;;;;11.45;100.00;100006.41;5023150;28;20804;-51
2020/12/22 02:18:52;;;;;;;0.30;0.20;;;;;;;11.40;100.00;100004.84;5021741;28;20546;-50
2020/12/22 02:21:20;;;;;;;0.30;0.20;;;;;;;11.39;100.00;100017.28;5026232;28;20460;-50
2020/12/22 02:23:51;;;;;;;0.30;0.20;;;;;;;11.33;100.00;100014.84;5028140;28;20499;-50
2020/12/22 02:26:25;;;;;;;0.30;0.20;;;;;;;11.41;100.00;100001.25;5024238;28;20456;-51
2020/12/22 02:28:52;;;;;;;0.30;0.20;;;;;;;11.45;100.00;100021.50;5020729;28;20472;-50
2020/12/22 02:31:21;;;;;;;0.30;0.20;;;;;;;11.42;100.00;100032.28;5024097;28;20487;-50
2020/12/22 02:33:47;;;;;;;0.30;0.20;;;;;;;11.31;100.00;100023.78;5027877;28;20945;-50
2020/12/22 02:36:14;;;;;;;0.30;0.20;;;;;;;11.26;100.00;100026.63;5025674;28;20451;-50
2020/12/22 02:38:41;;;;;;;0.30;0.20;;;;;;;11.36;100.00;100032.47;5020952;28;20517;-50
2020/12/22 02:41:08;;;;;;;0.30;0.20;;;;;;;11.28;100.00;100032.75;5023100;28;20946;-50
2020/12/22 02:43:35;;;;;;;0.30;0.20;;;;;;;11.35;100.00;100034.28;5027364;28;20493;-51
2020/12/22 02:46:02;;;;;;;0.30;0.20;;;;;;;11.31;100.00;100029.13;5026306;28;20466;-51
2020/12/22 02:48:29;;;;;;;0.30;0.20;;;;;;;11.31;100.00;100023.78;5020825;28;20468;-51
2020/12/22 02:50:55;;;;;;;0.30;0.20;;;;;;;11.24;100.00;100025.81;5022575;28;20456;-51
2020/12/22 02:53:21;;;;;;;0.30;0.20;;;;;;;11.32;100.00;100023.75;5027685;28;20515;-51
2020/12/22 02:55:47;;;;;;;0.30;0.20;;;;;;;11.40;100.00;100026.13;5025966;28;20941;-52
2020/12/22 02:58:14;;;;;;;0.30;0.20;;;;;;;11.37;100.00;100023.56;5007294;28;20912;-51
2020/12/22 03:00:42;;;;;;;0.30;0.20;;;;;;;11.53;100.00;100030.97;5021669;28;20487;-50
2020/12/22 03:03:09;;;;;;;0.30;0.20;;;;;;;11.53;100.00;100012.31;5025501;28;20495;-51
2020/12/22 03:05:35;;;;;;;0.30;0.20;;;;;;;11.52;100.00;100021.25;5018452;28;20452;-50
2020/12/22 03:08:03;;;;;;;0.30;0.20;;;;;;;11.66;100.00;100023.38;5020366;28;20501;-51
2020/12/22 03:10:29;;;;;;;0.30;0.20;;;;;;;11.57;100.00;100029.91;5021231;28;20487;-50
2020/12/22 03:12:55;;;;;;;0.30;0.20;;;;;;;11.60;100.00;100026.25;5026948;28;20427;-50
2020/12/22 03:15:22;;;;;;;0.30;0.20;;;;;;;11.51;100.00;100021.25;5026580;28;20820;-50
2020/12/22 03:17:48;;;;;;;0.30;0.20;;;;;;;11.61;100.00;100020.00;5020553;28;20451;-51
2020/12/22 03:20:14;;;;;;;0.30;0.20;;;;;;;11.51;100.00;100031.91;5020745;28;20480;-50
2020/12/22 03:22:42;;;;;;;0.30;0.20;;;;;;;11.51;100.00;100035.47;5027015;28;20467;-50
2020/12/22 03:25:10;;;;;;;0.30;0.20;;;;;;;11.62;100.00;100024.41;5026763;28;20505;-51
2020/12/22 03:27:36;;;;;;;0.30;0.20;;;;;;;11.62;100.00;100019.09;5026812;28;20457;-50
2020/12/22 03:30:05;;;;;;;0.30;0.20;;;;;;;11.58;100.00;100025.47;5027024;28;20470;-50
2020/12/22 03:32:31;;;;;;;0.30;0.20;;;;;;;11.71;100.00;100023.22;5004701;28;20519;-51
2020/12/22 03:34:57;;;;;;;0.30;0.20;;;;;;;11.68;100.00;100023.34;5027030;28;20460;-51
2020/12/22 03:37:23;;;;;;;0.30;0.20;;;;;;;11.82;100.00;100018.38;5020420;28;20562;-51
2020/12/22 03:39:51;;;;;;;0.30;0.20;;;;;;;11.74;100.00;100021.28;5019063;28;20484;-50
2020/12/22 03:42:18;;;;;;;0.30;0.20;;;;;;;11.79;100.00;100022.03;5025982;28;20456;-50
2020/12/22 03:44:46;;;;;;;0.30;0.20;;;;;;;11.90;100.00;100024.28;5026466;28;20492;-50
2020/12/22 03:47:13;;;;;;;0.30;0.20;;;;;;;11.96;100.00;100023.19;5021276;28;20433;-51
2020/12/22 03:49:40;;;;;;;0.30;0.20;;;;;;;11.86;100.00;100025.31;5019670;28;20473;-50
2020/12/22 03:52:07;;;;;;;0.30;0.20;;;;;;;12.01;100.00;100030.06;5025280;28;20510;-50
2020/12/22 03:54:34;;;;;;;0.30;0.20;;;;;;;11.93;100.00;100016.19;5026388;28;20426;-50
2020/12/22 03:57:00;;;;;;;0.30;0.20;;;;;;;11.97;100.00;100015.13;5013470;28;20857;-50
2020/12/22 03:59:26;;;;;;;0.30;0.20;;;;;;;12.03;100.00;100016.69;5026396;28;20467;-50
2020/12/22 04:01:53;;;;;;;0.30;0.20;;;;;;;12.02;100.00;100004.28;5021686;28;20506;-50
2020/12/22 04:04:23;;;;;;;0.30;0.20;;;;;;;11.98;100.00;100000.00;5007874;28;20773;-50
2020/12/22 04:06:51;;;;;;;0.30;0.20;;;;;;;11.85;100.00;100000.50;5021612;28;20456;-50
2020/12/22 04:09:18;;;;;;;0.30;0.20;;;;;;;11.89;100.00;100001.22;5019389;28;20474;-50
2020/12/22 04:11:44;;;;;;;0.30;0.20;;;;;;;11.89;100.00;100003.88;5023917;28;20475;-51
2020/12/22 04:14:11;;;;;;;0.30;0.20;;;;;;;11.96;100.00;99989.44;5026427;28;20451;-51
2020/12/22 04:16:37;;;;;;;0.30;0.20;;;;;;;11.87;100.00;100008.41;5021788;28;20967;-51
2020/12/22 04:19:05;;;;;;;0.30;0.20;;;;;;;11.88;100.00;100002.16;5019264;28;20535;-51
2020/12/22 04:21:32;;;;;;;0.30;0.20;;;;;;;11.99;100.00;99994.63;5023254;28;20973;-51
2020/12/22 04:23:58;;;;;;;0.30;0.20;;;;;;;11.93;100.00;100002.88;5026042;28;21684;-51
2020/12/22 04:26:25;;;;;;;0.30;0.20;;;;;;;12.01;100.00;100003.41;5022119;28;20945;-51
2020/12/22 04:28:52;;;;;;;0.30;0.20;;;;;;;12.18;100.00;100009.88;5019045;28;20487;-51
2020/12/22 04:31:21;;;;;;;0.30;0.20;;;;;;;12.06;100.00;100014.78;5022938;28;20459;-48
2020/12/22 04:33:51;;;;;;;0.30;0.30;;;;;;;12.13;100.00;100013.59;5025816;28;20475;-51
2020/12/22 04:36:19;;;;;;;0.30;0.20;;;;;;;12.03;100.00;100019.34;5023361;28;20414;-51
2020/12/22 04:38:46;;;;;;;0.30;0.20;;;;;;;12.14;100.00;100026.00;5018930;28;20841;-51
2020/12/22 04:41:14;;;;;;;0.30;0.20;;;;;;;12.00;100.00;100025.66;5021600;28;20459;-51
2020/12/22 04:43:42;;;;;;;0.30;0.20;;;;;;;12.00;100.00;100022.13;5026091;28;20490;-51
2020/12/22 04:46:09;;;;;;;0.30;0.20;;;;;;;12.02;100.00;100022.94;5024267;28;20510;-51
2020/12/22 04:48:38;;;;;;;0.30;0.20;;;;;;;12.06;100.00;100028.09;5018988;28;20525;-51
2020/12/22 04:51:09;;;;;;;0.30;0.20;;;;;;;11.95;100.00;100021.44;5020702;28;20483;-51
2020/12/22 04:53:37;;;;;;;0.30;0.20;;;;;;;11.99;100.00;100031.91;5030253;28;20494;-51
2020/12/22 04:56:05;;;;;;;0.30;0.20;;;;;;;12.09;100.00;100032.44;5027397;28;20451;-51
2020/12/22 04:58:32;;;;;;;0.30;0.20;;;;;;;12.24;100.00;100037.16;5012569;28;20475;-52
2020/12/22 05:00:59;;;;;;;0.30;0.20;;;;;;;12.07;100.00;100028.97;5022868;28;20795;-51
2020/12/22 05:03:26;;;;;;;0.30;0.20;;;;;;;12.14;100.00;100031.31;5023940;28;20517;-51
2020/12/22 05:05:53;;;;;;;0.30;0.20;;;;;;;12.24;100.00;100044.28;5012586;28;20423;-51
2020/12/22 05:08:20;;;;;;;0.30;0.20;;;;;;;12.06;100.00;100040.53;5027913;28;20513;-51
2020/12/22 05:10:47;;;;;;;0.30;0.20;;;;;;;12.05;100.00;100047.66;5030108;28;20455;-51
2020/12/22 05:13:15;;;;;;;0.30;0.20;;;;;;;12.05;100.00;100052.13;5024905;28;20444;-51
2020/12/22 05:15:49;;;;;;;0.30;0.20;;;;;;;12.10;100.00;100056.34;5022621;28;20827;-51
2020/12/22 05:18:18;;;;;;;0.30;0.20;;;;;;;12.07;100.00;100052.94;5025982;28;20918;-51
2020/12/22 05:20:46;;;;;;;0.30;0.20;;;;;;;12.08;100.00;100054.69;5029693;28;20449;-51
2020/12/22 05:23:18;;;;;;;0.30;0.20;;;;;;;12.05;100.00;100050.31;5027033;28;20549;-51
2020/12/22 05:25:46;;;;;;;0.30;0.20;;;;;;;12.01;100.00;100050.50;5022269;28;20863;-51
2020/12/22 05:28:18;;;;;;;0.30;0.20;;;;;;;12.11;100.00;100039.44;5023709;28;20892;-51
2020/12/22 05:30:45;;;;;;;0.30;0.20;;;;;;;11.92;100.00;100045.50;5029349;28;20456;-51
2020/12/22 05:33:12;;;;;;;0.30;0.20;;;;;;;11.98;100.00;100046.16;5028726;28;20859;-51
2020/12/22 05:35:40;;;;;;;0.30;0.20;;;;;;;11.88;100.00;100044.78;5022238;28;20447;-51
2020/12/22 05:38:06;;;;;;;0.30;0.20;;;;;;;11.78;100.00;100048.66;5022612;28;20503;-51
2020/12/22 05:40:33;;;;;;;0.30;0.20;;;;;;;11.78;100.00;100048.66;5028802;28;20906;-51
2020/12/22 05:43:00;;;;;;;0.30;0.20;;;;;;;12.02;100.00;100057.56;5028649;28;20498;-51
2020/12/22 05:45:34;;;;;;;0.30;0.20;;;;;;;11.88;100.00;100051.91;5022243;28;20447;-51
2020/12/22 05:48:00;;;;;;;0.30;0.20;;;;;;;11.93;100.00;100048.16;5021757;28;20959;-51
2020/12/22 05:50:27;;;;;;;0.30;0.20;;;;;;;11.94;100.00;100055.22;5028194;28;20427;-51
2020/12/22 05:52:55;;;;;;;0.30;0.20;;;;;;;11.96;100.00;100044.50;5028532;28;20932;-51
2020/12/22 05:55:26;;;;;;;0.30;0.20;;;;;;;11.99;100.00;100052.34;5023155;28;20451;-51
2020/12/22 05:58:10;;;;;;;0.30;0.20;;;;;;;12.05;100.00;100049.44;5008678;28;20457;-51
2020/12/22 06:00:41;;;;;;;0.30;0.20;;;;;;;11.88;100.00;100049.22;5023596;28;20449;-51
2020/12/22 06:03:10;;;;;;;0.30;0.20;;;;;;;11.88;100.00;100054.56;5025594;28;20852;-51
2020/12/22 06:05:39;;;;;;;0.30;0.20;;;;;;;11.96;100.00;100050.69;5020875;28;20494;-51
2020/12/22 06:08:07;;;;;;;0.30;0.20;;;;;;;11.90;100.00;100058.03;5021551;28;20929;-51
2020/12/22 06:10:35;;;;;;;0.30;0.20;;;;;;;12.15;100.00;100059.69;5021716;28;20924;-51
2020/12/22 06:13:03;;;;;;;0.30;0.20;;;;;;;12.05;100.00;100066.28;5028025;28;20874;-51
2020/12/22 06:15:30;;;;;;;0.30;0.20;;;;;;;11.95;100.00;100059.59;5028494;28;20516;-51
2020/12/22 06:17:56;;;;;;;0.30;0.20;;;;;;;12.04;100.00;100061.03;5022230;28;20793;-51
2020/12/22 06:20:25;;;;;;;0.30;0.20;;;;;;;12.26;100.00;100064.63;5020045;28;20534;-51
2020/12/22 06:22:58;;;;;;;0.30;0.20;;;;;;;12.16;100.00;100064.09;5027419;28;20506;-50
2020/12/22 06:25:25;;;;;;;0.30;0.20;;;;;;;12.13;100.00;100060.69;5028169;28;20963;-51
2020/12/22 06:27:51;;;;;;;0.30;0.20;;;;;;;12.05;100.00;100060.09;5023346;28;20461;-50
2020/12/22 06:30:17;;;;;;;0.30;0.20;;;;;;;12.00;100.00;100065.63;5021132;28;20479;-50
2020/12/22 06:32:44;;;;;;;0.30;0.20;;;;;;;12.04;100.00;100061.91;5003614;28;20518;-50
2020/12/22 06:35:30;;;;;;;0.30;0.20;;;;;;;12.16;100.00;100060.56;5028310;28;20530;-51
2020/12/22 06:37:58;;;;;;;0.30;0.20;;;;;;;12.06;100.00;100057.41;5021330;28;20952;-50
2020/12/22 06:40:54;;;;;;;0.30;0.20;;;;;;;12.00;100.00;100059.44;5022251;28;20849;-51
2020/12/22 06:43:39;;;;;;;0.30;0.20;;;;;;;12.07;100.00;100067.13;5020915;28;20538;-50
2020/12/22 06:46:29;;;;;;;0.30;0.20;;;;;;;12.11;100.00;100063.41;5023221;28;20535;-51
2020/12/22 06:48:56;;;;;;;0.30;0.20;;;;;;;11.93;100.00;100073.91;5011096;28;20447;-50
2020/12/22 06:51:26;;;;;;;0.30;0.20;;;;;;;11.89;100.00;100073.13;5020105;28;20456;-51
2020/12/22 06:53:52;;;;;;;0.30;0.20;;;;;;;11.94;100.00;100076.53;5023966;28;20450;-51
2020/12/22 06:56:38;;;;;;;0.30;0.20;;;;;;;11.94;100.00;100073.84;5024023;28;20448;-51
2020/12/22 06:59:05;;;;;;;0.30;0.20;;;;;;;11.89;100.00;100074.94;5019747;28;20891;-50
2020/12/22 07:01:33;;;;;;;0.30;0.20;;;;;;;11.93;100.00;100073.91;5020627;28;20452;-51
2020/12/22 07:04:20;;;;;;;0.30;0.20;;;;;;;12.06;100.00;100081.38;5012231;28;20464;-51
2020/12/22 07:06:51;;;;;;;0.30;0.20;;;;;;;12.01;100.00;100083.34;5012476;28;20454;-50
2020/12/22 07:09:24;;;;;;;0.30;0.20;;;;;;;12.05;100.00;100084.09;5020710;28;20490;-50
2020/12/22 07:11:54;;;;;;;0.30;0.20;;;;;;;12.11;100.00;100081.19;5023255;28;20480;-50
2020/12/22 07:14:22;;;;;;;0.30;0.20;;;;;;;12.14;100.00;100081.06;5027209;28;20449;-51
2020/12/22 07:16:53;;;;;;;0.30;0.20;;;;;;;12.02;100.00;100077.06;5025547;28;20459;-50
2020/12/22 07:19:28;;;;;;;0.30;0.20;;;;;;;12.10;100.00;100077.66;5020284;28;20486;-51
2020/12/22 07:21:56;;;;;;;0.30;0.20;;;;;;;12.12;100.00;100077.59;5020353;28;20448;-51
2020/12/22 07:24:24;;;;;;;0.30;0.20;;;;;;;12.10;100.00;100082.13;5026691;28;20515;-51
2020/12/22 07:26:50;;;;;;;0.30;0.20;;;;;;;12.10;100.00;100095.44;5026735;28;20983;-52
2020/12/22 07:29:16;;;;;;;0.30;0.20;;;;;;;12.10;100.00;100096.31;5021278;28;20510;-51
2020/12/22 07:31:43;;;;;;;0.30;0.20;;;;;;;12.11;100.00;100100.72;5020356;28;20452;-52
2020/12/22 07:34:09;;;;;;;0.30;0.20;;;;;;;12.24;100.00;100105.59;5026179;28;20445;-51
2020/12/22 07:36:36;;;;;;;0.30;0.20;;;;;;;12.33;100.00;100099.88;5026652;28;20452;-52
2020/12/22 07:39:15;;;;;;;0.30;0.20;;;;;;;12.30;100.00;100116.00;5022296;28;20476;-51
2020/12/22 07:41:43;;;;;;;0.30;0.20;;;;;;;12.32;100.00;100108.81;5020487;28;20941;-52
2020/12/22 07:44:14;;;;;;;0.30;0.20;;;;;;;12.37;100.00;100102.38;5013670;28;20528;-51
2020/12/22 07:46:42;;;;;;;0.30;0.20;;;;;;;12.27;100.00;100103.66;5026653;28;20483;-51
2020/12/22 07:49:12;;;;;;;0.30;0.20;;;;;;;12.29;100.00;100108.94;5024754;28;20821;-51
2020/12/22 07:51:43;;;;;;;0.30;0.20;;;;;;;12.32;100.00;100106.13;5019740;28;20497;-51
2020/12/22 07:54:11;;;;;;;0.30;0.20;;;;;;;12.35;100.00;100114.91;5020737;28;20449;-51
2020/12/22 07:56:39;;;;;;;0.30;0.20;;;;;;;12.42;100.00;100108.41;5026554;28;20449;-51
2020/12/22 07:59:08;;;;;;;0.30;0.20;;;;;;;12.47;100.00;100118.88;5025658;28;20448;-51
2020/12/22 08:01:41;;;;;;;0.30;0.20;;;;;;;12.50;100.00;100112.56;5019567;28;20456;-51
2020/12/22 08:04:27;;;;;;;0.30;0.20;;;;;;;12.46;100.00;100118.00;5009633;28;21076;-51
2020/12/22 08:06:53;;;;;;;0.30;0.20;;;;;;;12.57;100.00;100124.72;5022955;28;20447;-51
2020/12/22 08:09:37;;;;;;;0.30;0.20;;;;;;;12.59;100.00;100122.84;5016372;28;20719;-51
2020/12/22 08:12:05;;;;;;;0.30;0.20;;;;;;;12.61;100.00;100127.22;5025291;28;20517;-51
2020/12/22 08:14:33;;;;;;;0.30;0.20;;;;;;;12.62;100.00;100134.28;5019419;28;20506;-51
2020/12/22 08:17:05;;;;;;;0.30;0.20;;;;;;;12.67;100.00;100142.97;5015576;28;20449;-50
2020/12/22 08:19:35;;;;;;;0.30;0.20;;;;;;;12.64;100.00;100140.44;4999044;28;20877;-52
2020/12/22 08:22:04;;;;;;;0.30;0.20;;;;;;;12.72;100.00;100143.66;5020552;28;20455;-51
2020/12/22 08:24:34;;;;;;;0.30;0.20;;;;;;;12.76;100.00;100147.09;5020568;28;21004;-51
2020/12/22 08:27:01;;;;;;;0.30;0.20;;;;;;;12.80;100.00;100147.81;5018038;28;20456;-51
2020/12/22 08:29:28;;;;;;;0.30;0.20;;;;;;;12.74;100.00;100141.78;5023822;28;20491;-51
2020/12/22 08:31:59;;;;;;;0.30;0.20;;;;;;;12.76;100.00;100149.75;5003838;28;20937;-51
2020/12/22 08:34:27;;;;;;;0.30;0.20;;;;;;;12.74;100.00;100146.25;5021991;28;20941;-51
2020/12/22 08:36:53;;;;;;;0.30;0.20;;;;;;;12.75;100.00;100150.69;5017990;28;20455;-51
2020/12/22 08:39:22;;;;;;;0.30;0.20;;;;;;;12.84;100.00;100150.28;5023195;28;20472;-51
2020/12/22 08:41:54;;;;;;;0.30;0.20;;;;;;;12.85;100.00;100146.69;5028989;28;20486;-51
2020/12/22 08:44:21;;;;;;;0.30;0.20;;;;;;;12.96;100.00;100152.47;5021403;28;21024;-51
2020/12/22 08:46:47;;;;;;;0.30;0.20;;;;;;;12.98;100.00;100145.25;5025575;28;20427;-51
2020/12/22 08:49:25;;;;;;;0.30;0.20;;;;;;;13.05;100.00;100140.56;5023609;28;20446;-51
2020/12/22 08:51:52;;;;;;;0.30;0.20;;;;;;;13.04;100.00;100145.03;5018946;28;20454;-51
2020/12/22 08:54:25;;;;;;;0.30;0.20;;;;;;;13.01;100.00;100141.59;5020127;28;20498;-50
2020/12/22 08:56:51;;;;;;;0.30;0.20;;;;;;;13.00;100.00;100148.72;5000580;28;20451;-50
2020/12/22 08:59:27;;;;;;;0.30;0.20;;;;;;;13.11;100.00;100139.44;5025335;28;20479;-50
2020/12/22 09:01:53;;;;;;;0.30;0.20;;;;;;;13.18;100.00;100148.94;5021617;28;20455;-50
2020/12/22 09:04:30;;;;;;;0.30;0.20;;;;;;;13.20;100.00;100155.09;5007289;28;20730;-50
2020/12/22 09:06:57;;;;;;;0.30;0.20;;;;;;;13.11;100.00;100150.97;5022631;28;20972;-50
2020/12/22 09:09:33;;;;;;;0.30;0.20;;;;;;;13.08;100.00;100156.44;5018509;28;20442;-51
2020/12/22 09:12:10;;;;;;;0.30;0.20;;;;;;;13.18;100.00;100162.28;5019113;28;20459;-52
2020/12/22 09:14:44;;;;;;;0.30;0.20;;;;;;;13.18;100.00;100165.84;5004986;28;20857;-51
2020/12/22 09:17:11;;;;;;;0.30;0.20;;;;;;;13.16;100.00;100162.34;5018591;28;20825;-51
2020/12/22 09:19:52;;;;;;;0.30;0.20;;;;;;;13.28;100.00;100163.66;5024102;28;20822;-50
2020/12/22 09:22:24;;;;;;;0.30;0.20;;;;;;;13.28;100.00;100177.84;5025553;28;20427;-50
2020/12/22 09:24:52;;;;;;;0.30;0.20;;;;;;;13.30;100.00;100181.38;5023016;28;20494;-51
2020/12/22 09:27:30;;;;;;;0.30;0.20;;;;;;;13.23;100.00;100176.31;5018826;28;20456;-50
2020/12/22 09:30:00;;;;;;;0.30;0.20;;;;;;;13.19;100.00;100178.25;5018982;28;20450;-51
2020/12/22 09:32:29;;;;;;;0.30;0.20;;;;;;;13.38;100.00;100181.03;5003949;28;20448;-51
2020/12/22 09:34:55;;;;;;;0.30;0.20;;;;;;;13.41;100.00;100175.56;5025285;28;20451;-50
2020/12/22 09:37:23;;;;;;;0.30;0.20;;;;;;;13.31;100.00;100176.88;5019338;28;20518;-49
2020/12/22 09:39:53;;;;;;;0.30;0.20;;;;;;;13.45;100.00;100179.84;5021072;28;20472;-50
2020/12/22 09:42:21;;;;;;;0.30;0.20;;;;;;;13.33;100.00;100181.22;5027485;28;20453;-51
2020/12/22 09:44:47;;;;;;;0.30;0.20;;;;;;;13.51;100.00;100173.38;5028614;28;20516;-50
2020/12/22 09:47:13;;;;;;;0.30;0.20;;;;;;;13.41;100.00;100180.03;5022760;28;20448;-52
2020/12/22 09:49:40;;;;;;;0.30;0.20;;;;;;;13.60;100.00;100181.00;5021316;28;20864;-50
2020/12/22 09:52:07;;;;;;;0.30;0.20;;;;;;;13.71;100.00;100183.22;5027056;28;20452;-50
2020/12/22 09:54:34;;;;;;;0.30;0.20;;;;;;;13.67;100.00;100193.13;5028693;28;20422;-50
2020/12/22 09:57:00;;;;;;;0.30;0.20;;;;;;;13.64;100.00;100191.47;5015508;28;20464;-49
2020/12/22 09:59:27;;;;;;;0.30;0.20;;;;;;;13.68;100.00;100188.66;5028804;28;20476;-50
2020/12/22 10:01:55;;;;;;;0.30;0.20;;;;;;;13.63;100.00;100194.22;5024155;28;20459;-50
2020/12/22 10:04:21;;;;;;;0.30;0.20;;;;;;;13.77;100.00;100198.97;5009959;28;20499;-49
2020/12/22 10:06:50;;;;;;;0.30;0.20;;;;;;;13.79;100.00;100199.75;5024077;28;20452;-50
2020/12/22 10:09:17;;;;;;;0.30;0.20;;;;;;;13.88;100.00;100202.91;5021443;28;20480;-51
2020/12/22 10:11:44;;;;;;;0.30;0.20;;;;;;;13.81;100.00;100198.75;5025716;28;20808;-50
2020/12/22 10:14:11;;;;;;;0.30;0.20;;;;;;;13.92;100.00;100196.50;5028262;28;20515;-50
2020/12/22 10:16:37;;;;;;;0.30;0.20;;;;;;;13.99;100.00;100201.59;5024662;28;20448;-50
2020/12/22 10:19:04;;;;;;;0.30;0.20;;;;;;;14.00;100.00;100196.16;5021442;28;20537;-50
2020/12/22 10:21:30;;;;;;;0.30;0.20;;;;;;;14.01;100.00;100199.72;5025136;28;20446;-50
2020/12/22 10:24:04;;;;;;;0.30;0.20;;;;;;;13.98;100.00;100203.38;5028067;28;20470;-50
2020/12/22 10:26:31;;;;;;;0.30;0.20;;;;;;;13.90;100.00;100203.72;5025774;28;20919;-50
2020/12/22 10:28:57;;;;;;;0.30;0.20;;;;;;;14.05;100.00;100203.97;5021101;28;20450;-50
2020/12/22 10:31:25;;;;;;;0.30;0.20;;;;;;;14.00;100.00;100203.31;5023832;28;20457;-50
2020/12/22 10:33:52;;;;;;;0.50;0.50;;;;;;;14.17;100.00;100206.09;5027777;28;20459;-49
2020/12/22 10:36:20;;;;;;;0.30;0.20;;;;;;;14.16;100.00;100209.72;5025976;28;21002;-49
2020/12/22 10:38:52;;;;;;;1.13;1.13;;;;;;;14.30;100.00;100206.44;5021146;28;20522;-50
2020/12/22 10:41:19;;;;;;;0.30;0.20;;;;;;;14.40;100.00;100205.06;5022349;28;21139;-50
2020/12/22 10:43:48;;;;;;;0.30;0.20;;;;;;;14.40;100.00;100210.44;5027638;28;21037;-50
2020/12/22 10:46:15;;;;;;;0.30;0.20;;;;;;;14.43;100.00;100207.59;5027726;28;20448;-50
2020/12/22 10:48:45;;;;;;;0.30;0.20;;;;;;;14.54;100.00;100210.69;5027815;28;20860;-49
2020/12/22 10:51:12;;;;;;;0.30;0.20;;;;;;;14.57;100.00;100212.34;5027097;28;20847;-50
2020/12/22 10:53:39;;;;;;;0.30;0.20;;;;;;;14.59;100.00;100199.78;5021416;28;20447;-50
2020/12/22 10:56:16;;;;;;;0.30;0.20;;;;;;;14.68;100.00;100208.25;5020564;28;20487;-50
2020/12/22 10:58:43;;;;;;;0.30;0.20;;;;;;;14.46;100.00;100205.69;5023463;28;20858;-50
2020/12/22 11:01:14;;;;;;;0.30;0.20;;;;;;;14.61;100.00;100206.78;5020609;28;20423;-50
2020/12/22 11:03:41;;;;;;;0.30;0.20;;;;;;;14.69;100.00;100207.31;5017927;28;20577;-50
2020/12/22 11:06:35;;;;;;;0.30;0.20;;;;;;;14.70;100.00;100208.16;5014720;28;20448;-50
2020/12/22 11:09:01;;;;;;;0.30;0.20;;;;;;;14.89;100.00;100206.34;5020602;28;20843;-50
2020/12/22 11:11:29;;;;;;;0.30;0.20;;;;;;;14.87;100.00;100210.91;5026743;28;20452;-50
2020/12/22 11:13:55;;;;;;;0.30;0.20;;;;;;;14.92;100.00;100200.84;5027306;28;20938;-50
2020/12/22 11:16:25;;;;;;;0.30;0.20;;;;;;;14.97;100.00;100196.16;5020802;28;20505;-50
2020/12/22 11:18:51;;;;;;;0.30;0.20;;;;;;;15.09;100.00;100208.94;5019850;28;20491;-50
2020/12/22 11:21:20;;;;;;;0.30;0.20;;;;;;;15.08;100.00;100207.22;5026507;28;20456;-51
2020/12/22 11:23:47;;;;;;;0.30;0.20;;;;;;;15.15;100.00;100197.06;5026606;28;20487;-50